createdAt,value
2019-03-23T00:00:54.616Z,95.10
2019-03-23T00:03:36.440Z,95.10
2019-03-23T00:06:18.501Z,95.30
2019-03-23T00:09:00.521Z,95.50
2019-03-23T00:11:42.378Z,95.40
2019-03-23T00:14:24.188Z,95.50
2019-03-23T00:17:06.282Z,95.50
2019-03-23T00:19:48.368Z,95.20
2019-03-23T00:22:30.455Z,95.10
2019-03-23T00:25:12.439Z,95.00
2019-03-23T00:27:54.470Z,94.80
2019-03-23T00:30:36.241Z,94.80
2019-03-23T00:33:18.474Z,94.80
2019-03-23T00:36:01.085Z,94.80
2019-03-23T00:38:43.251Z,95.10
2019-03-23T00:41:25.627Z,95.10
2019-03-23T00:44:07.904Z,94.90
2019-03-23T00:46:50.339Z,94.90
2019-03-23T00:49:32.586Z,95.00
2019-03-23T00:52:14.730Z,95.10
2019-03-23T00:54:57.286Z,95.00
2019-03-23T00:57:39.907Z,95.30
2019-03-23T01:00:22.518Z,95.20
2019-03-23T01:03:04.982Z,95.10
2019-03-23T01:05:47.461Z,95.00
2019-03-23T01:08:29.746Z,95.00
2019-03-23T01:11:11.656Z,95.00
2019-03-23T01:13:54.201Z,94.80
2019-03-23T01:16:36.567Z,94.90
2019-03-23T01:19:18.498Z,95.40
2019-03-23T01:22:00.587Z,95.10
2019-03-23T01:24:43.737Z,95.10
2019-03-23T01:27:25.746Z,95.20
2019-03-23T01:30:08.253Z,95.10
2019-03-23T01:32:50.747Z,95.00
2019-03-23T01:35:32.517Z,95.00
2019-03-23T01:38:14.571Z,95.10
2019-03-23T01:40:56.704Z,95.20
2019-03-23T01:43:39.084Z,95.40
2019-03-23T01:46:21.087Z,95.50
2019-03-23T01:49:03.564Z,95.40
2019-03-23T01:51:45.504Z,95.60
2019-03-23T01:54:27.387Z,95.60
2019-03-23T01:57:09.656Z,95.80
2019-03-23T01:59:51.664Z,95.60
2019-03-23T02:02:34.047Z,95.50
2019-03-23T02:05:16.478Z,95.60
2019-03-23T02:07:58.572Z,95.50
2019-03-23T02:10:41.950Z,95.10
2019-03-23T02:13:23.904Z,95.00
2019-03-23T02:16:05.744Z,95.20
2019-03-23T02:18:48.178Z,95.10
2019-03-23T02:21:30.407Z,95.40
2019-03-23T02:24:11.363Z,95.50
2019-03-23T02:30:31.254Z,95.70
2019-03-23T02:40:26.387Z,95.10
2019-03-23T02:43:35.712Z,95.00
2019-03-23T02:46:45.009Z,95.20
2019-03-23T02:53:10.389Z,95.50
2019-03-23T02:56:19.663Z,95.50
2019-03-23T02:59:29.040Z,95.30
2019-03-23T03:02:18.919Z,95.10
2019-03-23T03:05:28.201Z,94.90
2019-03-23T03:11:46.357Z,95.10
2019-03-23T03:14:36.215Z,95.30
2019-03-23T03:17:45.579Z,95.20
2019-03-23T03:20:54.920Z,95.10
2019-03-23T03:23:56.137Z,95.00
2019-03-23T03:26:38.178Z,95.00
2019-03-23T03:29:19.985Z,95.30
2019-03-23T03:32:02.115Z,95.10
2019-03-23T03:34:44.698Z,95.10
2019-03-23T03:37:26.451Z,95.00
2019-03-23T03:40:08.326Z,94.90
2019-03-23T03:42:50.836Z,95.00
2019-03-23T03:45:33.006Z,95.00
2019-03-23T03:48:14.955Z,95.20
2019-03-23T03:50:56.717Z,95.30
2019-03-23T03:53:38.990Z,95.40
2019-03-23T03:56:20.998Z,95.20
2019-03-23T03:59:03.093Z,95.20
2019-03-23T04:01:45.516Z,95.10
2019-03-23T04:04:27.759Z,95.00
2019-03-23T04:07:09.779Z,94.90
2019-03-23T04:09:52.330Z,95.00
2019-03-23T04:12:34.672Z,94.90
2019-03-23T04:15:17.110Z,95.00
2019-03-23T04:17:59.721Z,94.80
2019-03-23T04:20:41.785Z,95.00
2019-03-23T04:23:23.824Z,94.80
2019-03-23T04:26:06.181Z,95.00
2019-03-23T04:28:48.416Z,95.00
2019-03-23T04:31:30.539Z,95.00
2019-03-23T04:34:12.638Z,95.30
2019-03-23T04:36:55.233Z,95.30
2019-03-23T04:39:36.226Z,95.30
2019-03-23T04:42:26.446Z,95.60
2019-03-23T04:45:17.131Z,95.70
2019-03-23T04:47:48.246Z,95.80
2019-03-23T04:50:19.338Z,95.70
2019-03-23T04:52:50.430Z,95.40
2019-03-23T04:55:21.506Z,95.30
2019-03-23T04:57:52.619Z,95.40
2019-03-23T05:00:23.647Z,95.60
2019-03-23T05:02:54.699Z,95.70
2019-03-23T05:05:25.869Z,95.60
2019-03-23T05:07:57.325Z,95.60
2019-03-23T05:10:28.358Z,95.70
2019-03-23T05:12:59.393Z,95.70
2019-03-23T05:15:30.393Z,95.60
2019-03-23T05:18:01.469Z,95.70
2019-03-23T05:20:33.015Z,95.80
2019-03-23T05:23:04.167Z,95.90
2019-03-23T05:25:35.249Z,95.80
2019-03-23T05:28:06.306Z,95.90
2019-03-23T05:30:37.727Z,95.90
2019-03-23T05:33:08.784Z,95.90
2019-03-23T05:35:39.901Z,95.90
2019-03-23T05:38:10.967Z,95.90
2019-03-23T05:40:41.999Z,95.90
2019-03-23T05:43:13.059Z,95.90
2019-03-23T05:45:44.253Z,95.90
2019-03-23T05:48:15.568Z,95.70
2019-03-23T05:50:46.944Z,95.60
2019-03-23T05:53:18.900Z,95.50
2019-03-23T05:55:49.958Z,95.60
2019-03-23T05:58:20.991Z,95.60
2019-03-23T06:00:52.015Z,95.60
2019-03-23T06:03:23.129Z,95.60
2019-03-23T06:05:54.204Z,95.60
2019-03-23T06:08:25.246Z,95.60
2019-03-23T06:10:56.326Z,95.80
2019-03-23T06:13:27.371Z,95.80
2019-03-23T06:15:58.709Z,95.90
2019-03-23T06:18:29.817Z,96.00
2019-03-23T06:21:00.843Z,96.00
2019-03-23T06:23:31.904Z,96.10
2019-03-23T06:26:02.969Z,96.10
2019-03-23T06:28:34.266Z,96.10
2019-03-23T06:31:05.295Z,96.10
2019-03-23T06:33:36.498Z,96.20
2019-03-23T06:36:07.555Z,96.20
2019-03-23T06:39:05.096Z,96.20
2019-03-23T06:42:08.462Z,96.10
2019-03-23T06:51:49.415Z,96.20
2019-03-23T07:01:23.685Z,96.40
2019-03-23T07:04:32.958Z,96.50
2019-03-23T07:10:56.917Z,96.60
2019-03-23T07:23:31.109Z,96.70
2019-03-23T07:26:40.442Z,96.70
2019-03-23T07:35:51.816Z,96.70
2019-03-23T07:38:33.710Z,96.60
2019-03-23T07:41:16.575Z,96.50
2019-03-23T07:43:58.431Z,96.40
2019-03-23T07:46:40.563Z,96.60
2019-03-23T07:49:22.717Z,96.60
2019-03-23T07:52:04.978Z,96.70
2019-03-23T07:54:46.829Z,96.80
2019-03-23T07:57:28.810Z,96.70
2019-03-23T08:00:10.833Z,96.80
2019-03-23T08:02:52.891Z,96.80
2019-03-23T08:05:35.366Z,96.90
2019-03-23T08:08:17.881Z,96.90
2019-03-23T08:11:00.312Z,96.90
2019-03-23T08:13:42.224Z,96.80
2019-03-23T08:16:24.242Z,96.90
2019-03-23T08:19:06.181Z,96.90
2019-03-23T08:21:48.397Z,96.90
2019-03-23T08:24:30.288Z,96.90
2019-03-23T08:27:12.469Z,97.00
2019-03-23T08:29:54.326Z,96.90
2019-03-23T08:32:36.583Z,96.90
2019-03-23T08:35:18.309Z,96.80
2019-03-23T08:38:00.300Z,96.90
2019-03-23T08:40:42.468Z,96.80
2019-03-23T08:43:25.036Z,96.70
2019-03-23T08:46:07.127Z,96.80
2019-03-23T08:48:49.319Z,96.70
2019-03-23T08:51:32.717Z,96.90
2019-03-23T08:54:15.043Z,96.70
2019-03-23T08:56:57.887Z,96.70
2019-03-23T08:59:40.984Z,96.70
2019-03-23T09:02:24.298Z,96.50
2019-03-23T09:05:06.818Z,96.30
2019-03-23T09:07:49.441Z,96.40
2019-03-23T09:10:31.481Z,96.30
2019-03-23T09:13:15.152Z,96.30
2019-03-23T09:15:58.023Z,96.30
2019-03-23T09:18:40.221Z,96.30
2019-03-23T09:21:22.956Z,96.30
2019-03-23T09:24:05.487Z,96.30
2019-03-23T09:26:47.831Z,96.40
2019-03-23T09:29:30.298Z,96.50
2019-03-23T09:32:12.500Z,96.60
2019-03-23T09:34:54.540Z,96.60
2019-03-23T09:37:38.142Z,96.60
2019-03-23T09:40:20.274Z,97.10
2019-03-23T09:43:03.673Z,96.80
2019-03-23T09:45:45.969Z,96.80
2019-03-23T09:48:27.879Z,96.90
2019-03-23T09:51:10.114Z,96.90
2019-03-23T09:53:52.212Z,96.60
2019-03-23T09:56:34.192Z,96.50
2019-03-23T09:59:16.065Z,96.40
2019-03-23T10:01:58.620Z,96.30
2019-03-23T10:04:40.399Z,95.90
2019-03-23T10:07:22.456Z,95.80
2019-03-23T10:10:04.759Z,96.00
2019-03-23T10:12:47.136Z,95.80
2019-03-23T10:15:29.283Z,95.60
2019-03-23T10:18:11.730Z,95.50
2019-03-23T10:20:53.586Z,95.40
2019-03-23T10:23:37.205Z,95.50
2019-03-23T10:26:19.183Z,95.60
2019-03-23T10:29:01.849Z,95.60
2019-03-23T10:31:43.983Z,95.50
2019-03-23T10:34:26.256Z,95.40
2019-03-23T10:37:08.306Z,95.20
2019-03-23T10:39:50.445Z,95.30
2019-03-23T10:42:32.718Z,95.20
2019-03-23T10:45:15.069Z,95.30
2019-03-23T10:50:39.488Z,95.00
2019-03-23T10:53:23.278Z,94.70
2019-03-23T10:56:06.567Z,94.80
2019-03-23T10:58:48.989Z,94.60
2019-03-23T11:01:31.357Z,94.50
2019-03-23T11:04:13.738Z,94.50
2019-03-23T11:06:56.039Z,94.20
2019-03-23T11:09:38.325Z,94.50
2019-03-23T11:12:20.368Z,94.60
2019-03-23T11:15:02.469Z,94.50
2019-03-23T11:17:44.837Z,94.50
2019-03-23T11:20:26.903Z,94.70
2019-03-23T11:23:09.020Z,94.50
2019-03-23T11:25:51.503Z,94.50
2019-03-23T11:28:33.771Z,94.40
2019-03-23T11:31:16.039Z,94.60
2019-03-23T11:33:59.088Z,94.70
2019-03-23T11:36:41.144Z,94.80
2019-03-23T11:39:23.252Z,94.80
2019-03-23T11:42:05.563Z,94.90
2019-03-23T11:44:48.430Z,94.80
2019-03-23T11:47:30.588Z,94.70
2019-03-23T11:50:12.931Z,94.60
2019-03-23T11:55:45.121Z,94.90
2019-03-23T11:58:27.444Z,94.70
2019-03-23T12:01:09.764Z,94.80
2019-03-23T12:03:52.983Z,94.70
2019-03-23T12:06:37.919Z,94.90
2019-03-23T12:09:19.825Z,95.00
2019-03-23T12:12:01.836Z,94.90
2019-03-23T12:14:44.140Z,95.00
2019-03-23T12:17:25.906Z,94.80
2019-03-23T12:20:07.922Z,95.10
2019-03-23T12:22:50.252Z,95.10
2019-03-23T12:25:32.105Z,95.20
2019-03-23T12:28:14.619Z,95.10
2019-03-23T12:30:56.609Z,95.10
2019-03-23T12:33:38.780Z,95.20
2019-03-23T12:36:20.769Z,95.00
2019-03-23T12:39:03.177Z,95.40
2019-03-23T12:41:45.149Z,95.50
2019-03-23T12:44:27.321Z,95.40
2019-03-23T12:47:09.325Z,95.20
2019-03-23T12:49:51.527Z,95.30
2019-03-23T12:52:34.451Z,95.30
2019-03-23T12:55:16.874Z,95.20
2019-03-23T12:57:59.433Z,95.70
2019-03-23T13:00:41.456Z,95.40
2019-03-23T13:03:23.354Z,95.40
2019-03-23T13:06:06.557Z,95.90
2019-03-23T13:08:49.343Z,95.70
2019-03-23T13:11:35.444Z,95.40
2019-03-23T13:14:15.701Z,95.40
2019-03-23T13:16:57.886Z,95.80
2019-03-23T13:19:40.532Z,95.60
2019-03-23T13:22:21.810Z,95.70
2019-03-23T13:28:27.561Z,96.00
2019-03-23T13:31:17.271Z,95.90
2019-03-23T13:34:26.686Z,96.10
2019-03-23T13:37:08.982Z,96.10
2019-03-23T13:39:51.406Z,96.20
2019-03-23T13:42:34.208Z,95.80
2019-03-23T13:45:16.423Z,95.70
2019-03-23T13:47:58.390Z,95.90
2019-03-23T13:50:40.330Z,96.20
2019-03-23T13:53:22.433Z,96.00
2019-03-23T13:56:04.696Z,96.00
2019-03-23T13:58:46.847Z,96.40
2019-03-23T14:01:28.888Z,96.10
2019-03-23T14:04:10.871Z,96.10
2019-03-23T14:06:53.047Z,95.90
2019-03-23T14:09:35.109Z,96.00
2019-03-23T14:12:17.423Z,97.10
2019-03-23T14:14:59.310Z,97.20
2019-03-23T14:17:41.508Z,96.80
2019-03-23T14:20:24.035Z,96.90
2019-03-23T14:23:05.822Z,96.50
2019-03-23T14:25:47.819Z,96.30
2019-03-23T14:28:30.017Z,95.40
2019-03-23T14:31:12.687Z,95.20
2019-03-23T14:33:54.777Z,96.30
2019-03-23T14:36:36.541Z,96.70
2019-03-23T14:39:18.673Z,96.60
2019-03-23T14:42:04.762Z,96.70
2019-03-23T14:44:44.601Z,97.10
2019-03-23T14:47:27.391Z,96.70
2019-03-23T14:50:09.964Z,96.30
2019-03-23T14:52:51.923Z,96.10
2019-03-23T14:55:34.045Z,96.10
2019-03-23T14:58:16.653Z,96.10
2019-03-23T15:00:59.013Z,96.80
2019-03-23T15:03:40.751Z,96.60
2019-03-23T15:06:23.163Z,96.00
2019-03-23T15:09:05.449Z,95.70
2019-03-23T15:11:47.695Z,95.20
2019-03-23T15:14:29.797Z,95.70
2019-03-23T15:17:12.284Z,96.90
2019-03-23T15:19:54.434Z,97.50
2019-03-23T15:22:36.621Z,96.70
2019-03-23T15:25:18.602Z,97.40
2019-03-23T15:28:00.341Z,97.00
2019-03-23T15:30:42.372Z,97.40
2019-03-23T15:33:24.167Z,97.40
2019-03-23T15:36:06.324Z,97.60
2019-03-23T15:38:48.862Z,97.40
2019-03-23T15:41:30.936Z,96.70
2019-03-23T15:44:12.805Z,96.70
2019-03-23T15:46:54.738Z,96.50
2019-03-23T15:49:36.593Z,96.60
2019-03-23T15:52:18.845Z,97.30
2019-03-23T15:55:03.163Z,97.20
2019-03-23T15:57:45.398Z,97.50
2019-03-23T16:00:27.552Z,97.10
2019-03-23T16:03:09.526Z,97.30
2019-03-23T16:05:51.505Z,97.70
2019-03-23T16:08:33.458Z,97.70
2019-03-23T16:11:15.269Z,98.00
2019-03-23T16:13:57.509Z,97.90
2019-03-23T16:16:39.353Z,98.10
2019-03-23T16:19:21.173Z,98.10
2019-03-23T16:22:03.583Z,97.60
2019-03-23T16:24:46.063Z,97.00
2019-03-23T16:27:28.096Z,97.10
2019-03-23T16:30:10.313Z,97.30
2019-03-23T16:32:52.922Z,97.00
2019-03-23T16:35:35.295Z,97.00
2019-03-23T16:38:17.372Z,97.40
2019-03-23T16:40:59.141Z,97.30
2019-03-23T16:43:41.088Z,96.80
2019-03-23T16:46:23.375Z,96.50
2019-03-23T16:49:05.367Z,96.40
2019-03-23T16:51:47.366Z,96.20
2019-03-23T16:54:29.699Z,95.80
2019-03-23T17:00:36.920Z,95.60
2019-03-23T17:03:18.971Z,95.10
2019-03-23T17:06:01.520Z,95.00
2019-03-23T17:08:43.881Z,95.10
2019-03-23T17:11:26.347Z,94.80
2019-03-23T17:14:08.345Z,94.70
2019-03-23T17:16:50.783Z,94.70
2019-03-23T17:19:33.371Z,94.80
2019-03-23T17:22:15.519Z,94.60
2019-03-23T17:24:57.855Z,94.40
2019-03-23T17:27:39.770Z,93.70
2019-03-23T17:30:21.980Z,93.10
2019-03-23T17:33:04.409Z,92.80
2019-03-23T17:35:46.375Z,92.40
2019-03-23T17:38:28.894Z,92.50
2019-03-23T17:41:11.040Z,92.80
2019-03-23T17:43:53.237Z,92.10
2019-03-23T17:46:35.254Z,91.40
2019-03-23T17:49:17.061Z,91.40
2019-03-23T17:51:59.333Z,91.30
2019-03-23T17:54:41.630Z,91.80
2019-03-23T17:57:23.971Z,92.10
2019-03-23T18:00:06.219Z,92.00
2019-03-23T18:02:48.175Z,91.60
2019-03-23T18:05:30.614Z,91.60
2019-03-23T18:08:13.737Z,91.70
2019-03-23T18:10:56.052Z,91.50
2019-03-23T18:13:38.573Z,91.30
2019-03-23T18:16:20.739Z,91.40
2019-03-23T18:19:03.370Z,90.80
2019-03-23T18:21:47.832Z,90.70
2019-03-23T18:24:29.516Z,90.70
2019-03-23T18:27:11.294Z,90.90
2019-03-23T18:29:53.378Z,91.10
2019-03-23T18:32:35.665Z,91.40
2019-03-23T18:35:18.037Z,91.50
2019-03-23T18:38:00.155Z,91.40
2019-03-23T18:40:42.090Z,91.80
2019-03-23T18:43:27.692Z,92.00
2019-03-23T18:46:08.948Z,92.20
2019-03-23T18:48:51.175Z,92.10
2019-03-23T18:51:34.032Z,92.30
2019-03-23T18:54:16.083Z,92.00
2019-03-23T18:56:59.463Z,91.90
2019-03-23T18:59:42.563Z,91.80
2019-03-23T19:02:24.387Z,91.60
2019-03-23T19:05:06.264Z,91.40
2019-03-23T19:07:48.490Z,90.80
2019-03-23T19:10:32.413Z,90.10
2019-03-23T19:16:00.954Z,90.60
2019-03-23T19:18:42.823Z,90.80
2019-03-23T19:21:25.410Z,90.60
2019-03-23T19:24:07.294Z,90.10
2019-03-23T19:26:49.473Z,90.10
2019-03-23T19:29:31.431Z,90.00
2019-03-23T19:32:13.537Z,90.40
2019-03-23T19:34:55.357Z,90.10
2019-03-23T19:37:39.019Z,90.00
2019-03-23T19:40:21.671Z,90.20
2019-03-23T19:43:03.648Z,90.50
2019-03-23T19:45:45.786Z,90.80
2019-03-23T19:48:27.826Z,90.40
2019-03-23T19:51:09.549Z,90.60
2019-03-23T19:53:51.707Z,90.40
2019-03-23T19:56:34.328Z,90.80
2019-03-23T19:59:16.285Z,90.90
2019-03-23T20:01:58.857Z,91.10
2019-03-23T20:04:41.045Z,91.30
2019-03-23T20:07:32.568Z,91.50
2019-03-23T20:10:07.141Z,91.40
2019-03-23T20:12:48.819Z,91.60
2019-03-23T20:15:31.124Z,91.70
2019-03-23T20:18:13.647Z,91.60
2019-03-23T20:20:55.817Z,91.90
2019-03-23T20:23:38.162Z,91.80
2019-03-23T20:26:20.241Z,92.00
2019-03-23T20:29:03.018Z,92.10
2019-03-23T20:31:45.610Z,92.00
2019-03-23T20:34:28.508Z,92.10
2019-03-23T20:37:10.503Z,92.10
2019-03-23T20:39:52.811Z,92.20
2019-03-23T20:42:35.190Z,92.40
2019-03-23T20:45:17.522Z,92.10
2019-03-23T20:47:59.560Z,92.00
2019-03-23T20:50:41.577Z,92.00
2019-03-23T20:53:23.602Z,92.10
2019-03-23T20:56:06.353Z,92.00
2019-03-23T20:58:47.987Z,91.90
2019-03-23T21:01:30.061Z,91.70
2019-03-23T21:04:11.821Z,91.90
2019-03-23T21:06:54.245Z,92.10
2019-03-23T21:09:36.427Z,92.20
2019-03-23T21:12:18.686Z,92.30
2019-03-23T21:15:02.707Z,92.20
2019-03-23T21:17:51.252Z,92.10
2019-03-23T21:20:29.393Z,92.20
2019-03-23T21:23:11.601Z,92.20
2019-03-23T21:25:53.892Z,92.20
2019-03-23T21:28:35.698Z,92.20
2019-03-23T21:31:17.361Z,92.20
2019-03-23T21:33:59.968Z,92.20
2019-03-23T21:36:41.826Z,92.40
2019-03-23T21:39:23.910Z,92.40
2019-03-23T21:42:06.201Z,92.40
2019-03-23T21:44:48.260Z,92.40
2019-03-23T21:47:30.084Z,92.30
2019-03-23T21:50:12.413Z,92.20
2019-03-23T21:52:54.640Z,92.20
2019-03-23T21:55:36.783Z,92.40
2019-03-23T21:58:19.279Z,92.50
2019-03-23T22:01:01.446Z,92.70
2019-03-23T22:03:43.556Z,92.60
2019-03-23T22:06:26.127Z,92.70
2019-03-23T22:09:08.227Z,92.90
2019-03-23T22:11:50.809Z,93.10
2019-03-23T22:14:41.353Z,93.20
2019-03-23T22:17:16.591Z,93.50
2019-03-23T22:19:58.411Z,93.30
2019-03-23T22:22:40.387Z,93.30
2019-03-23T22:25:23.081Z,93.40
2019-03-23T22:28:04.853Z,93.30
2019-03-23T22:30:46.855Z,93.30
2019-03-23T22:33:29.481Z,93.10
2019-03-23T22:36:11.544Z,92.90
2019-03-23T22:38:53.565Z,92.90
2019-03-23T22:41:36.161Z,92.90
2019-03-23T22:44:18.231Z,93.00
2019-03-23T22:47:00.178Z,92.90
2019-03-23T22:49:42.759Z,92.80
2019-03-23T22:52:25.058Z,92.70
2019-03-23T22:55:07.414Z,92.70
2019-03-23T22:57:49.478Z,92.70
2019-03-23T23:00:50.727Z,92.60
2019-03-23T23:03:32.828Z,92.70
2019-03-23T23:06:14.643Z,92.60
2019-03-23T23:08:56.746Z,92.70
2019-03-23T23:11:38.879Z,92.80
2019-03-23T23:14:21.051Z,92.90
2019-03-23T23:17:03.216Z,93.00
2019-03-23T23:19:45.277Z,93.10
2019-03-23T23:22:27.385Z,93.10
2019-03-23T23:25:09.747Z,93.10
2019-03-23T23:27:51.883Z,93.10
2019-03-23T23:30:33.897Z,93.30
2019-03-23T23:33:16.131Z,93.30
2019-03-23T23:35:58.321Z,93.20
2019-03-23T23:38:40.476Z,93.10
2019-03-23T23:41:22.497Z,93.20
2019-03-23T23:44:04.391Z,93.20
2019-03-23T23:46:46.781Z,93.20
2019-03-23T23:49:28.491Z,93.00
2019-03-23T23:52:10.466Z,93.00
2019-03-23T23:54:52.207Z,93.30
2019-03-23T23:57:34.230Z,93.30
